createdAt,value
2019-02-19T00:02:56.445Z,26.90
2019-02-19T00:07:04.680Z,27.80
2019-02-19T00:11:12.669Z,28.27
2019-02-19T00:15:21.096Z,27.70
2019-02-19T00:19:29.328Z,27.47
2019-02-19T00:23:37.372Z,27.60
2019-02-19T00:27:45.155Z,27.47
2019-02-19T00:31:53.263Z,28.20
2019-02-19T00:36:01.493Z,27.90
2019-02-19T00:40:09.212Z,29.10
2019-02-19T00:44:17.500Z,27.63
2019-02-19T00:48:25.346Z,28.67
2019-02-19T00:52:32.932Z,29.63
2019-02-19T00:56:41.663Z,26.53
2019-02-19T01:00:49.864Z,28.07
2019-02-19T01:04:57.788Z,27.13
2019-02-19T01:09:08.950Z,26.83
2019-02-19T01:13:16.678Z,29.60
2019-02-19T01:17:24.493Z,29.93
2019-02-19T01:21:32.812Z,30.43
2019-02-19T01:25:40.542Z,29.77
2019-02-19T01:29:48.139Z,30.70
2019-02-19T01:33:56.475Z,29.57
2019-02-19T01:38:04.291Z,28.57
2019-02-19T01:42:12.486Z,29.40
2019-02-19T01:46:20.411Z,27.37
2019-02-19T01:50:28.266Z,30.13
2019-02-19T01:54:36.196Z,30.17
2019-02-19T01:58:44.444Z,29.30
2019-02-19T02:02:52.295Z,30.50
2019-02-19T02:07:00.458Z,30.57
2019-02-19T02:11:08.795Z,28.90
2019-02-19T02:15:16.618Z,29.23
2019-02-19T02:19:24.914Z,30.73
2019-02-19T02:23:32.941Z,29.03
2019-02-19T02:27:41.782Z,29.93
2019-02-19T02:31:50.188Z,29.30
2019-02-19T02:35:58.024Z,29.50
2019-02-19T02:40:06.141Z,28.80
2019-02-19T02:44:14.333Z,29.87
2019-02-19T02:48:21.799Z,30.27
2019-02-19T02:52:29.880Z,30.20
2019-02-19T02:56:37.803Z,28.90
2019-02-19T03:00:45.691Z,30.27
2019-02-19T03:04:53.608Z,29.07
2019-02-19T03:09:01.913Z,32.60
2019-02-19T03:13:11.081Z,32.13
2019-02-19T03:17:19.262Z,27.30
2019-02-19T03:21:27.085Z,31.07
2019-02-19T03:25:35.243Z,32.53
2019-02-19T03:29:43.641Z,33.93
2019-02-19T03:33:51.468Z,33.67
2019-02-19T03:38:01.389Z,35.13
2019-02-19T03:42:09.729Z,32.57
2019-02-19T03:46:17.543Z,35.07
2019-02-19T03:50:25.755Z,36.70
2019-02-19T03:54:33.588Z,41.37
2019-02-19T03:58:41.116Z,41.13
2019-02-19T04:02:49.272Z,40.40
2019-02-19T04:06:57.096Z,45.97
2019-02-19T04:11:04.844Z,45.23
2019-02-19T04:15:13.313Z,44.60
2019-02-19T04:19:20.984Z,41.80
2019-02-19T04:23:28.907Z,46.33
2019-02-19T04:27:37.039Z,44.33
2019-02-19T04:31:44.887Z,49.83
2019-02-19T04:35:54.162Z,52.93
2019-02-19T04:40:02.114Z,51.37
2019-02-19T04:44:12.093Z,50.93
2019-02-19T04:48:20.777Z,51.67
2019-02-19T04:52:28.842Z,52.10
2019-02-19T04:56:36.454Z,47.63
2019-02-19T05:00:44.384Z,47.17
2019-02-19T05:04:52.487Z,46.10
2019-02-19T05:09:00.215Z,43.30
2019-02-19T05:13:08.089Z,44.40
2019-02-19T05:17:16.461Z,43.70
2019-02-19T05:21:24.333Z,44.70
2019-02-19T05:25:33.564Z,45.50
2019-02-19T05:29:41.579Z,43.10
2019-02-19T05:33:49.311Z,42.00
2019-02-19T05:37:57.621Z,46.17
2019-02-19T05:42:06.562Z,46.57
2019-02-19T05:46:14.364Z,46.50
2019-02-19T05:50:22.597Z,44.60
2019-02-19T05:54:30.387Z,45.13
2019-02-19T05:58:38.135Z,45.90
2019-02-19T06:02:46.038Z,42.57
2019-02-19T06:06:53.924Z,41.23
2019-02-19T06:11:01.853Z,41.00
2019-02-19T06:15:10.341Z,42.53
2019-02-19T06:19:18.155Z,51.93
2019-02-19T06:23:26.301Z,45.83
2019-02-19T06:27:34.369Z,43.70
2019-02-19T06:31:42.119Z,49.30
2019-02-19T06:35:50.154Z,56.67
2019-02-19T06:39:58.278Z,40.93
2019-02-19T06:44:06.417Z,40.87
2019-02-19T06:48:14.662Z,43.13
2019-02-19T06:52:22.933Z,41.57
2019-02-19T06:56:30.683Z,43.97
2019-02-19T07:00:39.377Z,43.10
2019-02-19T07:04:51.112Z,39.57
2019-02-19T07:08:59.052Z,38.47
2019-02-19T07:13:06.873Z,34.97
2019-02-19T07:17:16.563Z,42.83
2019-02-19T07:21:24.438Z,39.93
2019-02-19T07:25:32.908Z,46.80
2019-02-19T07:29:40.668Z,34.83
2019-02-19T07:33:48.561Z,34.17
2019-02-19T07:37:56.702Z,33.63
2019-02-19T07:42:04.482Z,36.03
2019-02-19T07:46:12.434Z,32.67
2019-02-19T07:50:21.209Z,37.20
2019-02-19T07:54:30.610Z,34.13
2019-02-19T07:58:39.688Z,34.37
2019-02-19T08:02:48.322Z,35.70
2019-02-19T08:06:56.027Z,33.57
2019-02-19T08:11:04.103Z,30.03
2019-02-19T08:15:12.072Z,57.60
2019-02-19T08:19:20.360Z,28.17
2019-02-19T08:23:29.898Z,34.27
2019-02-19T08:27:37.713Z,29.17
2019-02-19T08:31:45.932Z,32.07
2019-02-19T08:35:53.848Z,25.83
2019-02-19T08:40:01.504Z,25.23
2019-02-19T08:44:09.510Z,28.60
2019-02-19T08:48:17.489Z,26.53
2019-02-19T08:52:25.282Z,25.63
2019-02-19T08:56:33.283Z,27.60
2019-02-19T09:00:41.533Z,26.17
2019-02-19T09:04:49.240Z,27.80
2019-02-19T09:08:56.929Z,24.80
2019-02-19T09:13:04.778Z,24.07
2019-02-19T09:17:12.629Z,26.03
2019-02-19T09:21:21.071Z,27.00
2019-02-19T09:25:28.798Z,22.83
2019-02-19T09:29:36.390Z,24.93
2019-02-19T09:33:44.294Z,22.33
2019-02-19T09:37:52.100Z,22.53
2019-02-19T09:41:59.842Z,22.33
2019-02-19T09:46:08.162Z,23.43
2019-02-19T09:50:16.715Z,26.33
2019-02-19T09:54:25.335Z,25.77
2019-02-19T09:58:33.213Z,22.80
2019-02-19T10:02:40.927Z,26.57
2019-02-19T10:06:49.130Z,25.67
2019-02-19T10:10:56.946Z,21.00
2019-02-19T10:15:05.089Z,20.83
2019-02-19T10:19:13.277Z,19.03
2019-02-19T10:23:21.277Z,22.17
2019-02-19T10:27:29.027Z,18.97
2019-02-19T10:31:36.821Z,21.73
2019-02-19T10:35:45.808Z,21.27
2019-02-19T10:39:53.581Z,21.63
2019-02-19T10:44:01.740Z,19.33
2019-02-19T10:48:09.506Z,19.97
2019-02-19T10:52:17.622Z,20.87
2019-02-19T10:56:25.645Z,19.33
2019-02-19T11:00:33.451Z,21.97
2019-02-19T11:04:41.360Z,24.77
2019-02-19T11:08:49.668Z,21.57
2019-02-19T11:12:57.274Z,21.20
2019-02-19T11:17:05.180Z,22.57
2019-02-19T11:21:19.344Z,21.33
2019-02-19T11:25:22.701Z,21.37
2019-02-19T11:29:30.374Z,26.57
2019-02-19T11:33:38.283Z,25.17
2019-02-19T11:37:46.086Z,22.37
2019-02-19T11:41:54.196Z,22.30
2019-02-19T11:46:01.798Z,23.00
2019-02-19T11:50:09.921Z,25.70
2019-02-19T11:54:18.040Z,24.53
2019-02-19T11:58:25.642Z,23.43
2019-02-19T12:02:33.811Z,24.33
2019-02-19T12:06:41.927Z,24.33
2019-02-19T12:10:49.689Z,23.87
2019-02-19T12:14:57.617Z,24.27
2019-02-19T12:19:05.804Z,23.33
2019-02-19T12:23:13.709Z,23.00
2019-02-19T12:27:21.733Z,23.80
2019-02-19T12:31:29.535Z,23.70
2019-02-19T12:35:37.572Z,24.63
2019-02-19T12:39:45.390Z,23.13
2019-02-19T12:43:53.371Z,21.87
2019-02-19T12:48:02.744Z,23.77
2019-02-19T12:52:10.956Z,25.97
2019-02-19T12:56:18.771Z,27.20
2019-02-19T13:00:26.590Z,24.37
2019-02-19T13:04:34.391Z,23.17
2019-02-19T13:08:42.444Z,25.27
2019-02-19T13:12:50.632Z,25.23
2019-02-19T13:16:58.426Z,23.23
2019-02-19T13:21:06.857Z,34.30
2019-02-19T13:25:13.853Z,26.00
2019-02-19T13:29:21.595Z,22.83
2019-02-19T13:33:29.774Z,24.43
2019-02-19T13:37:38.618Z,23.60
2019-02-19T13:41:46.233Z,25.90
2019-02-19T13:45:54.023Z,24.40
2019-02-19T13:50:01.738Z,25.80
2019-02-19T13:54:14.353Z,25.77
2019-02-19T13:58:22.417Z,28.80
2019-02-19T14:02:30.282Z,30.60
2019-02-19T14:06:38.483Z,24.20
2019-02-19T14:10:46.362Z,25.77
2019-02-19T14:14:58.939Z,31.03
2019-02-19T14:19:21.131Z,28.33
2019-02-19T14:23:43.571Z,29.90
2019-02-19T14:28:09.105Z,28.47
2019-02-19T14:32:35.623Z,37.97
2019-02-19T14:37:07.021Z,44.20
2019-02-19T14:41:40.058Z,54.07
2019-02-19T14:46:15.602Z,31.93
2019-02-19T14:50:41.306Z,31.73
2019-02-19T14:55:06.849Z,34.83
2019-02-19T14:59:33.699Z,35.97
2019-02-19T15:04:00.826Z,35.23
2019-02-19T15:08:26.071Z,34.20
2019-02-19T15:13:05.269Z,40.57
2019-02-19T15:17:30.895Z,35.90
2019-02-19T15:21:55.263Z,34.60
2019-02-19T15:26:26.658Z,38.83
2019-02-19T15:30:59.833Z,41.57
2019-02-19T15:35:29.756Z,35.87
2019-02-19T15:39:47.745Z,35.50
2019-02-19T15:44:23.873Z,34.03
2019-02-19T15:48:58.307Z,33.50
2019-02-19T15:53:43.301Z,37.80
2019-02-19T15:58:19.109Z,41.23
2019-02-19T16:02:35.223Z,39.57
2019-02-19T16:06:59.968Z,31.43
2019-02-19T16:11:16.956Z,37.57
2019-02-19T16:15:51.992Z,52.67
2019-02-19T16:20:05.902Z,45.97
2019-02-19T16:24:51.112Z,33.07
2019-02-19T16:29:25.385Z,41.07
2019-02-19T16:33:44.048Z,45.43
2019-02-19T16:38:09.966Z,39.13
2019-02-19T16:42:46.366Z,44.40
2019-02-19T16:47:21.868Z,44.50
2019-02-19T16:51:43.447Z,44.00
2019-02-19T16:56:01.390Z,37.57
2019-02-19T17:00:22.889Z,36.97
2019-02-19T17:04:48.321Z,40.27
2019-02-19T17:09:06.408Z,41.17
2019-02-19T17:13:33.843Z,38.23
2019-02-19T17:18:09.768Z,39.83
2019-02-19T17:22:34.642Z,32.27
2019-02-19T17:27:19.878Z,40.93
2019-02-19T17:31:40.990Z,76.53
2019-02-19T17:36:06.730Z,33.73
2019-02-19T17:40:24.231Z,31.03
2019-02-19T17:44:53.888Z,26.63
2019-02-19T17:49:10.445Z,43.87
2019-02-19T17:53:43.188Z,51.70
2019-02-19T17:58:16.511Z,40.00
2019-02-19T18:02:44.589Z,37.83
2019-02-19T18:06:59.498Z,39.23
2019-02-19T18:11:15.013Z,47.00
2019-02-19T18:15:45.453Z,42.73
2019-02-19T18:19:53.840Z,30.97
2019-02-19T18:24:01.618Z,37.97
2019-02-19T18:28:09.859Z,29.33
2019-02-19T18:32:17.871Z,31.67
2019-02-19T18:36:25.801Z,32.60
2019-02-19T18:40:34.119Z,27.50
2019-02-19T18:44:42.346Z,28.73
2019-02-19T18:48:50.070Z,68.87
2019-02-19T18:52:58.183Z,41.53
2019-02-19T18:57:06.715Z,34.63
2019-02-19T19:01:15.086Z,31.60
2019-02-19T19:05:23.038Z,29.23
2019-02-19T19:09:31.224Z,33.13
2019-02-19T19:13:38.913Z,72.87
2019-02-19T19:17:46.944Z,37.57
2019-02-19T19:21:54.687Z,55.47
2019-02-19T19:26:02.509Z,29.30
2019-02-19T19:30:11.719Z,33.87
2019-02-19T19:34:19.483Z,30.20
2019-02-19T19:38:27.428Z,28.87
2019-02-19T19:42:35.373Z,28.73
2019-02-19T19:46:43.981Z,25.60
2019-02-19T19:50:51.702Z,27.63
2019-02-19T19:54:59.348Z,28.47
2019-02-19T19:59:07.192Z,27.03
2019-02-19T20:03:15.170Z,29.23
2019-02-19T20:07:23.922Z,32.73
2019-02-19T20:11:36.463Z,33.60
2019-02-19T20:15:44.172Z,33.50
2019-02-19T20:19:52.104Z,27.13
2019-02-19T20:24:00.087Z,26.80
2019-02-19T20:28:09.236Z,28.07
2019-02-19T20:32:17.029Z,24.43
2019-02-19T20:36:25.177Z,27.07
2019-02-19T20:40:35.837Z,30.53
2019-02-19T20:44:44.106Z,26.67
2019-02-19T20:48:52.278Z,26.43
2019-02-19T20:53:01.639Z,27.80
2019-02-19T20:57:09.284Z,28.00
2019-02-19T21:01:17.378Z,27.77
2019-02-19T21:05:25.271Z,28.37
2019-02-19T21:09:43.151Z,27.20
2019-02-19T21:13:42.823Z,28.37
2019-02-19T21:17:50.745Z,23.40
2019-02-19T21:21:58.955Z,26.77
2019-02-19T21:26:07.398Z,28.07
2019-02-19T21:30:15.332Z,27.37
2019-02-19T21:34:23.493Z,22.50
2019-02-19T21:38:31.826Z,25.13
2019-02-19T21:42:39.654Z,23.07
2019-02-19T21:46:47.888Z,22.70
2019-02-19T21:50:55.874Z,23.77
2019-02-19T21:55:04.613Z,25.50
2019-02-19T21:59:14.055Z,23.60
2019-02-19T22:03:21.997Z,24.00
2019-02-19T22:07:29.791Z,22.50
2019-02-19T22:11:37.813Z,25.00
2019-02-19T22:15:45.717Z,24.63
2019-02-19T22:20:02.674Z,26.40
2019-02-19T22:24:03.284Z,23.93
2019-02-19T22:28:12.205Z,25.83
2019-02-19T22:32:20.997Z,28.80
2019-02-19T22:36:28.850Z,26.40
2019-02-19T22:40:36.461Z,28.67
2019-02-19T22:44:44.164Z,29.20
2019-02-19T22:48:52.061Z,29.90
2019-02-19T22:52:59.795Z,31.70
2019-02-19T22:57:07.604Z,29.67
2019-02-19T23:01:23.892Z,29.97
2019-02-19T23:05:33.458Z,30.00
2019-02-19T23:09:41.452Z,31.90
2019-02-19T23:13:49.076Z,29.87
2019-02-19T23:17:57.517Z,30.60
2019-02-19T23:22:05.414Z,31.47
2019-02-19T23:26:13.108Z,30.23
2019-02-19T23:30:21.327Z,32.43
2019-02-19T23:34:29.246Z,32.00
2019-02-19T23:38:37.057Z,30.40
2019-02-19T23:42:45.376Z,31.87
2019-02-19T23:46:53.504Z,31.17
2019-02-19T23:51:01.605Z,30.50
2019-02-19T23:55:09.632Z,28.93
2019-02-19T23:59:17.626Z,31.27
